CheckWX is a tool to help pilots better visualize weather data.  It is not intended as a substitute for an official pre-flight weather briefing.

01:52:32 UTC

KLCK TAF
Rickenbacker International Airport
Columbus, Ohio, USA
KLCK 182320Z 1900/1924 32005KT P6SM SCT060 FM190300 00000KT P6SM FEW060 FM191900 26006KT P6SM SCT040

Mar-19@
00:00 UTC

Mar-19 @ 00:00 UTC

Mar-19@
03:00 UTC

Mar-19 @ 03:00 UTC

KLCK 182320Z 1900/1924 32005KT P6SM SCT060
Wind
  • 320° at 5 KTS
Cloud Levels
  • Scattered at 6,000' AGL

Mar-19@
03:00 UTC

Mar-19 @ 03:00 UTC

Mar-19@
19:00 UTC

Mar-19 @ 19:00 UTC

FM190300 00000KT P6SM FEW060

From

From Standard forecast or significant change

Cloud Levels
  • Few at 6,000' AGL

Mar-19@
19:00 UTC

Mar-19 @ 19:00 UTC

Mar-20@
00:00 UTC

Mar-20 @ 00:00 UTC

FM191900 26006KT P6SM SCT040

From

From Standard forecast or significant change

Wind
  • 260° at 6 KTS
Cloud Levels
  • Scattered at 4,000' AGL